Time;durP1;ratioP1;P1;durP2;ratioP2;P2;SDS_P1;SDS_P2;PMS_P1;PMS_P2;Temp;Humidity;BMP_temperature;BMP_pressure;BME280_temperature;BME280_humidity;BME280_pressure;Samples;Min_cycle;Max_cycle;Signal;HPM_P1;HPM_P2
2023/01/07 00:00:04;;;;;;;3.63;3.30;;;;;;;1.05;78.97;98486.47;10325965;28;20084;-57
2023/01/07 00:05:04;;;;;;;8.38;2.95;;;;;;;1.03;78.98;98498.31;10322805;28;20137;-57
2023/01/07 00:10:03;;;;;;;0.40;0.40;;;;;;;0.99;79.28;98488.72;10326542;28;20080;-58
2023/01/07 00:15:02;;;;;;;7.60;6.95;;;;;;;1.00;79.13;98505.84;10329435;28;20071;-58
2023/01/07 00:20:01;;;;;;;;;;;;;;;0.83;79.74;98508.44;10327989;28;20045;-57
2023/01/07 00:24:59;;;;;;;4.72;4.47;;;;;;;0.26;80.92;98454.56;10327065;28;20381;-57
2023/01/07 00:29:58;;;;;;;;;;;;;;;0.37;80.53;98511.25;10324727;28;20041;-57
2023/01/07 00:34:57;;;;;;;4.57;3.00;;;;;;;0.22;80.60;98511.34;10327870;28;19983;-57
2023/01/07 00:39:56;;;;;;;;;;;;;;;0.22;80.57;98513.03;10319251;28;20128;-57
2023/01/07 00:44:55;;;;;;;1.88;1.77;;;;;;;0.02;80.58;98492.41;10324513;28;19960;-56
2023/01/07 00:49:54;;;;;;;;;;;;;;;0.23;81.00;98517.31;10318173;28;20117;-56
2023/01/07 00:54:52;;;;;;;3.08;2.33;;;;;;;0.24;80.87;98524.16;10323957;28;19956;-56
2023/01/07 00:59:51;;;;;;;;;;;;;;;0.23;80.98;98512.22;10324732;28;20029;-57
2023/01/07 01:04:50;;;;;;;4.90;4.70;;;;;;;0.23;81.59;98527.53;10326195;28;19991;-57
2023/01/07 01:09:49;;;;;;;;;;;;;;;0.25;81.70;98526.81;10323553;28;20120;-55
2023/01/07 01:14:48;;;;;;;2.72;2.63;;;;;;;0.26;81.39;98533.69;10325210;28;19953;-57
2023/01/07 01:19:46;;;;;;;;;;;;;;;0.30;81.36;98521.06;10323897;28;20467;-55
2023/01/07 01:24:45;;;;;;;0.70;0.70;;;;;;;0.27;81.72;98509.03;10324293;28;19960;-55
2023/01/07 01:29:44;;;;;;;;;;;;;;;0.30;81.38;98509.16;10324166;28;20029;-55
2023/01/07 01:34:43;;;;;;;1.55;1.35;;;;;;;0.19;81.65;98516.25;10333339;28;19956;-56
2023/01/07 01:39:42;;;;;;;;;;;;;;;0.18;81.66;98508.53;10334295;28;20065;-55
2023/01/07 01:44:58;;;;;;;3.70;3.50;;;;;;;0.10;81.69;98497.03;10334048;28;19909;-55
2023/01/07 01:50:09;;;;;;;19.17;9.05;;;;;;;0.09;81.96;98513.16;10332691;28;20141;-55
2023/01/07 01:55:11;;;;;;;0.82;0.82;;;;;;;-0.04;82.00;98499.78;10332374;28;20461;-55
2023/01/07 02:00:11;;;;;;;1.75;1.70;;;;;;;0.08;82.15;98508.84;10332167;28;20060;-55
2023/01/07 02:05:10;;;;;;;4.20;3.92;;;;;;;0.11;81.74;98497.13;10334597;28;20076;-56
2023/01/07 02:10:12;;;;;;;;;;;;;;;0.12;82.07;98492.91;10333285;28;20080;-55
2023/01/07 02:15:31;;;;;;;0.35;0.35;;;;;;;0.09;82.08;98490.19;10331103;28;20394;-55
2023/01/07 02:20:35;;;;;;;2.20;2.15;;;;;;;0.10;81.95;98495.41;10312206;28;20064;-55
2023/01/07 02:25:41;;;;;;;1.10;1.08;;;;;;;0.12;82.21;98508.22;10332660;28;20069;-55
2023/01/07 02:31:17;;;;;;;4.15;3.60;;;;;;;-0.01;82.13;98507.59;10331534;28;20076;-55
2023/01/07 02:36:19;;;;;;;3.75;3.50;;;;;;;-0.08;82.20;98505.50;10329375;28;20499;-55
2023/01/07 02:41:31;;;;;;;6.85;6.20;;;;;;;-0.27;83.07;98518.09;10332381;28;20061;-55
2023/01/07 02:46:39;;;;;;;0.40;0.40;;;;;;;-0.22;82.57;98512.44;10330967;28;20061;-55
2023/01/07 02:51:39;;;;;;;2.85;2.65;;;;;;;-0.43;82.47;98514.69;10331681;28;20488;-55
2023/01/07 02:57:12;;;;;;;5.25;4.72;;;;;;;-0.39;82.23;98514.06;10329340;28;20071;-55
2023/01/07 03:02:26;;;;;;;4.03;3.80;;;;;;;-0.55;83.15;98515.72;10305916;28;20068;-55
2023/01/07 03:08:18;;;;;;;1.95;1.85;;;;;;;-0.47;82.11;98515.31;10330453;28;20688;-55
2023/01/07 03:13:25;;;;;;;4.40;3.92;;;;;;;-0.55;82.60;98523.38;10244506;28;20126;-56
2023/01/07 03:18:40;;;;;;;3.50;2.80;;;;;;;-0.84;83.69;98520.97;10310581;28;20069;-56
2023/01/07 03:23:44;;;;;;;0.30;0.30;;;;;;;-0.81;83.10;98526.22;10330915;28;20713;-55
2023/01/07 03:28:45;;;;;;;0.85;0.85;;;;;;;-0.75;82.55;98522.25;10329490;28;20064;-56
2023/01/07 03:34:09;;;;;;;0.60;0.60;;;;;;;-0.72;82.44;98533.50;10331082;28;20073;-56
2023/01/07 03:39:11;;;;;;;1.40;1.30;;;;;;;-0.77;83.04;98524.69;10325837;28;20068;-56
2023/01/07 03:44:10;;;;;;;5.40;4.95;;;;;;;-0.78;83.10;98528.06;10330122;28;20108;-56
2023/01/07 03:49:08;;;;;;;;;;;;;;;-0.79;83.34;98528.84;10328893;28;20125;-56
2023/01/07 03:54:08;;;;;;;0.32;0.32;;;;;;;-0.81;82.94;98525.34;10329626;28;20090;-56
2023/01/07 03:59:07;;;;;;;8.48;4.80;;;;;;;-0.87;82.77;98530.97;10327088;28;20529;-56
2023/01/07 04:04:05;;;;;;;;;;;;;;;-0.82;82.47;98533.75;10328379;28;20072;-56
2023/01/07 04:09:04;;;;;;;0.30;0.30;;;;;;;-0.81;82.74;98533.88;10328283;28;19920;-56
2023/01/07 04:14:03;;;;;;;;;;;;;;;-0.83;82.35;98535.44;10329847;28;20025;-56
2023/01/07 04:19:02;;;;;;;10.00;9.10;;;;;;;-0.83;82.13;98535.44;10327879;28;19956;-56
2023/01/07 04:24:01;;;;;;;0.30;0.30;;;;;;;-0.81;82.76;98538.09;10325722;28;20533;-56
2023/01/07 04:29:00;;;;;;;;;;;;;;;-0.82;82.57;98544.84;10326091;28;20487;-56
2023/01/07 04:33:59;;;;;;;0.70;0.70;;;;;;;-0.80;82.52;98543.25;10327369;28;19923;-56
2023/01/07 04:38:58;;;;;;;;;;;;;;;-0.78;83.00;98552.66;10325128;28;20126;-56
2023/01/07 04:43:57;;;;;;;1.40;1.40;;;;;;;-0.80;83.05;98550.91;10323635;28;19909;-56
2023/01/07 04:48:56;;;;;;;2.25;2.15;;;;;;;-1.08;83.47;98504.28;10326510;28;20029;-56
2023/01/07 04:53:57;;;;;;;2.75;2.55;;;;;;;-1.09;83.12;98511.06;10328202;28;20061;-56
2023/01/07 04:58:56;;;;;;;3.97;3.70;;;;;;;-0.87;83.53;98546.25;10325841;28;20069;-56
2023/01/07 05:03:55;;;;;;;;;;;;;;;-0.94;82.88;98556.00;10290513;28;20036;-55
2023/01/07 05:08:53;;;;;;;0.40;0.40;;;;;;;-0.95;83.27;98556.78;10327483;28;19991;-56
2023/01/07 05:13:52;;;;;;;;;;;;;;;-0.94;82.77;98558.56;10328838;28;20437;-55
2023/01/07 05:18:51;;;;;;;3.37;3.20;;;;;;;-1.01;82.79;98552.22;10326904;28;19956;-56
2023/01/07 05:23:50;;;;;;;;;;;;;;;-1.00;83.19;98561.66;10327854;28;20093;-55
2023/01/07 05:28:49;;;;;;;3.67;3.35;;;;;;;-1.13;83.23;98565.16;10325663;28;20365;-55
2023/01/07 05:33:48;;;;;;;;;;;;;;;-1.19;83.49;98572.41;10326985;28;20521;-55
2023/01/07 05:38:48;;;;;;;6.60;5.60;;;;;;;-1.16;83.13;98574.28;10326632;28;19956;-55
2023/01/07 05:43:47;;;;;;;2.47;2.33;;;;;;;-1.35;83.42;98568.13;10325548;28;20065;-56
2023/01/07 05:48:46;;;;;;;;;;;;;;;-1.33;83.11;98575.81;10324278;28;20033;-56
2023/01/07 05:53:45;;;;;;;3.13;2.97;;;;;;;-1.63;83.32;98519.81;10327993;28;19996;-57
2023/01/07 05:58:43;;;;;;;;;;;;;;;-1.30;83.12;98571.81;10326060;28;20033;-56
2023/01/07 06:03:42;;;;;;;0.30;0.30;;;;;;;-1.30;83.57;98566.72;10307015;28;19960;-57
2023/01/07 06:08:41;;;;;;;;;;;;;;;-1.20;83.06;98570.69;10307647;28;20064;-57
2023/01/07 06:13:40;;;;;;;2.53;2.43;;;;;;;-1.19;83.50;98569.00;10325281;28;20463;-57
2023/01/07 06:18:39;;;;;;;;;;;;;;;-1.13;83.28;98572.78;10329878;28;20109;-57
2023/01/07 06:23:37;;;;;;;3.53;3.27;;;;;;;-1.18;83.42;98575.88;10328416;28;19940;-57
2023/01/07 06:28:36;;;;;;;;;;;;;;;-1.14;83.88;98577.78;10331193;28;20034;-57
2023/01/07 06:33:36;;;;;;;1.70;1.70;;;;;;;-1.14;83.57;98580.31;10331583;28;20298;-57
2023/01/07 06:38:35;;;;;;;3.92;3.55;;;;;;;-1.19;83.27;98563.91;10327983;28;20069;-57
2023/01/07 06:43:34;;;;;;;;;;;;;;;-1.02;83.36;98581.94;10333403;28;20057;-57
2023/01/07 06:48:33;;;;;;;24.03;11.43;;;;;;;-1.11;82.88;98545.75;10330672;28;19921;-57
2023/01/07 06:53:33;;;;;;;;;;;;;;;-0.77;82.54;98579.91;10331791;28;20112;-57
2023/01/07 06:58:32;;;;;;;10.20;9.63;;;;;;;-0.93;82.80;98540.81;10331105;28;19967;-57
2023/01/07 07:03:30;;;;;;;;;;;;;;;-0.67;82.49;98588.16;10332856;28;20249;-55
2023/01/07 07:08:29;;;;;;;2.83;2.63;;;;;;;-0.75;82.71;98585.97;10331382;28;19917;-56
2023/01/07 07:13:28;;;;;;;;;;;;;;;-0.64;82.80;98587.44;10328713;28;20119;-57
2023/01/07 07:18:27;;;;;;;5.50;5.00;;;;;;;-0.58;82.71;98569.94;10320078;28;19921;-57
2023/01/07 07:23:26;;;;;;;;;;;;;;;-0.27;81.94;98590.38;10323589;28;20033;-62
2023/01/07 07:28:25;;;;;;;2.27;2.17;;;;;;;-0.06;82.44;98580.47;10316590;28;19952;-56
2023/01/07 07:33:23;;;;;;;;;;;;;;;0.07;82.49;98583.66;10330308;28;20025;-56
2023/01/07 07:38:22;;;;;;;3.80;3.70;;;;;;;0.16;82.33;98566.28;10328890;28;19963;-56
2023/01/07 07:43:21;;;;;;;4.50;4.30;;;;;;;0.44;82.24;98574.59;10331347;28;20092;-57
2023/01/07 07:48:20;;;;;;;;;;;;;;;0.60;82.05;98575.38;10328620;28;20180;-56
2023/01/07 07:53:19;;;;;;;3.85;3.65;;;;;;;0.73;81.90;98556.44;10326189;28;19924;-57
2023/01/07 07:58:19;;;;;;;0.20;0.20;;;;;;;0.92;81.90;98563.34;10309713;28;20124;-57
2023/01/07 08:03:17;;;;;;;3.85;3.65;;;;;;;1.15;81.68;98565.34;10300640;28;20061;-60
2023/01/07 08:08:16;;;;;;;7.25;3.03;;;;;;;1.38;81.54;98557.94;10298891;28;20060;-56
2023/01/07 08:13:15;;;;;;;19.20;17.75;;;;;;;1.58;81.02;98557.22;10295535;28;20487;-56
2023/01/07 08:18:14;;;;;;;8.98;7.15;;;;;;;1.74;80.91;98561.38;10324849;28;20029;-57
2023/01/07 08:23:13;;;;;;;11.27;10.52;;;;;;;1.91;80.30;98555.34;10330063;28;20057;-56
2023/01/07 08:28:12;;;;;;;;;;;;;;;1.98;80.31;98551.38;10328432;28;20056;-57
2023/01/07 08:33:11;;;;;;;3.60;3.40;;;;;;;2.09;80.86;98547.63;10308289;28;19917;-57
2023/01/07 08:38:10;;;;;;;;;;;;;;;2.37;80.24;98543.69;10317709;28;20744;-56
2023/01/07 08:43:09;;;;;;;20.10;17.98;;;;;;;2.47;79.85;98538.19;10312042;28;20063;-57
2023/01/07 08:48:08;;;;;;;6.20;5.68;;;;;;;2.62;80.00;98542.22;10328165;28;20040;-57
2023/01/07 08:53:06;;;;;;;;;;;;;;;2.89;79.65;98537.41;10302589;28;20061;-57
2023/01/07 08:58:05;;;;;;;0.80;0.80;;;;;;;2.77;79.22;98472.00;10327436;28;19923;-57
2023/01/07 09:03:04;;;;;;;0.40;0.40;;;;;;;3.30;78.72;98522.81;10327922;28;20057;-57
2023/01/07 09:08:03;;;;;;;4.30;4.10;;;;;;;3.60;78.18;98507.75;10326970;28;20037;-57
2023/01/07 09:13:02;;;;;;;;;;;;;;;3.88;77.79;98509.69;10329435;28;20109;-57
2023/01/07 09:18:04;;;;;;;6.53;5.57;;;;;;;4.10;77.07;98497.63;10327709;28;19917;-58
2023/01/07 09:23:03;;;;;;;18.10;13.18;;;;;;;4.24;76.66;98486.16;10325184;28;20053;-58
2023/01/07 09:28:02;;;;;;;19.35;12.93;;;;;;;4.33;76.29;98483.03;10306977;28;20064;-56
2023/01/07 09:33:01;;;;;;;;;;;;;;;4.40;75.96;98472.16;10313373;28;20065;-57
2023/01/07 09:37:59;;;;;;;10.40;8.35;;;;;;;4.47;76.08;98459.56;10306168;28;20354;-56
2023/01/07 09:43:03;;;;;;;13.07;5.65;;;;;;;4.63;75.30;98445.53;10316777;28;20455;-56
2023/01/07 09:48:11;;;;;;;8.73;7.78;;;;;;;4.71;75.25;98448.34;10327201;28;20095;-57
2023/01/07 09:53:19;;;;;;;3.72;3.45;;;;;;;4.85;74.54;98435.94;10328059;28;20077;-56
2023/01/07 09:58:20;;;;;;;16.73;10.30;;;;;;;4.81;74.29;98403.28;10334680;28;20065;-56
2023/01/07 10:03:46;;;;;;;5.97;4.10;;;;;;;5.25;73.37;98411.50;10333323;28;20064;-56
2023/01/07 10:09:06;;;;;;;0.30;0.30;;;;;;;5.53;73.13;98403.81;10318083;28;20081;-56
2023/01/07 10:14:44;;;;;;;22.92;11.52;;;;;;;5.75;71.57;98404.44;10296826;28;20081;-56
2023/01/07 10:20:08;;;;;;;0.32;0.32;;;;;;;6.04;71.15;98388.91;10249636;28;20076;-56
2023/01/07 10:25:36;;;;;;;12.55;7.38;;;;;;;6.33;69.95;98380.25;10305410;28;20069;-57
2023/01/07 10:30:41;;;;;;;6.60;2.78;;;;;;;6.49;68.48;98370.31;10333964;28;20790;-56
2023/01/07 10:35:40;;;;;;;11.32;7.93;;;;;;;6.74;67.80;98361.47;10333681;28;20107;-56
2023/01/07 10:40:46;;;;;;;13.75;10.30;;;;;;;7.01;67.78;98361.25;10333842;28;20029;-57
2023/01/07 10:46:00;;;;;;;4.45;4.07;;;;;;;7.16;67.10;98345.25;10330857;28;20126;-59
2023/01/07 10:51:26;;;;;;;0.50;0.50;;;;;;;7.33;65.73;98337.84;10334138;28;20076;-58
2023/01/07 10:56:36;;;;;;;4.50;1.15;;;;;;;7.34;65.30;98294.00;10332626;28;20141;-58
2023/01/07 11:01:38;;;;;;;35.95;13.85;;;;;;;7.59;64.66;98321.22;10331792;28;20056;-62
2023/01/07 11:06:44;;;;;;;4.25;4.03;;;;;;;7.87;64.80;98311.41;10330462;28;20083;-58
2023/01/07 11:11:44;;;;;;;3.55;2.78;;;;;;;8.02;63.74;98301.38;10330879;28;20103;-57
2023/01/07 11:16:53;;;;;;;1.90;1.65;;;;;;;8.30;62.94;98296.66;10320260;28;20072;-57
2023/01/07 11:21:51;;;;;;;0.20;0.20;;;;;;;8.58;62.59;98289.38;10305668;28;20060;-58
2023/01/07 11:26:57;;;;;;;10.25;6.60;;;;;;;8.73;61.79;98292.16;10322119;28;20112;-58
2023/01/07 11:31:59;;;;;;;0.20;0.20;;;;;;;8.99;60.96;98283.91;10326063;28;20546;-58
2023/01/07 11:36:58;;;;;;;0.35;0.35;;;;;;;9.21;60.38;98270.41;10324567;28;20545;-58
2023/01/07 11:47:37;;;;;;;2.05;1.95;;;;;;;9.76;58.98;98255.50;10320354;28;20068;-59
2023/01/07 11:52:36;;;;;;;8.82;3.72;;;;;;;9.94;58.30;98241.88;10327592;28;20486;-58
2023/01/07 11:57:35;;;;;;;5.72;4.28;;;;;;;9.96;56.92;98221.16;10324985;28;20824;-57
2023/01/07 12:02:34;;;;;;;0.20;0.20;;;;;;;10.14;57.06;98199.69;10330766;28;20061;-57
2023/01/07 12:07:33;;;;;;;4.68;3.70;;;;;;;10.55;56.36;98230.25;10331383;28;20115;-57
2023/01/07 12:12:38;;;;;;;1.02;1.00;;;;;;;10.73;55.56;98217.41;10324744;28;20132;-58
2023/01/07 12:17:42;;;;;;;5.93;5.47;;;;;;;10.92;54.39;98205.41;10329468;28;20513;-59
2023/01/07 12:23:02;;;;;;;0.20;0.20;;;;;;;11.09;53.89;98205.47;10316798;28;20688;-57
2023/01/07 12:28:24;;;;;;;1.38;1.13;;;;;;;11.27;52.86;98204.69;10324863;28;20486;-58
2023/01/07 12:33:23;;;;;;;0.35;0.35;;;;;;;11.40;52.21;98201.25;10325651;28;20116;-58
2023/01/07 12:38:25;;;;;;;0.20;0.20;;;;;;;11.46;51.17;98196.06;10327149;28;20033;-59
2023/01/07 12:43:50;;;;;;;0.20;0.20;;;;;;;11.67;51.15;98184.00;10313645;28;20057;-58
2023/01/07 12:48:49;;;;;;;0.20;0.20;;;;;;;11.80;50.68;98179.66;10301994;28;20092;-58
2023/01/07 12:53:58;;;;;;;0.20;0.20;;;;;;;11.75;48.61;98147.59;10325213;28;20048;-58
2023/01/07 12:59:03;;;;;;;0.20;0.20;;;;;;;11.95;48.08;98165.81;10289837;28;20080;-58
2023/01/07 13:04:28;;;;;;;0.20;0.20;;;;;;;12.06;47.86;98183.16;10326680;28;20064;-60
2023/01/07 13:09:27;;;;;;;0.20;0.20;;;;;;;12.08;45.98;98176.19;10328911;28;20479;-60
2023/01/07 13:14:30;;;;;;;;;;;;;;;12.22;46.39;98177.94;10327040;28;20538;-60
2023/01/07 13:19:29;;;;;;;0.20;0.20;;;;;;;12.26;45.71;98164.06;10327355;28;19963;-57
2023/01/07 13:24:45;;;;;;;0.20;0.20;;;;;;;12.31;46.00;98175.34;10323875;28;20454;-59
2023/01/07 13:29:45;;;;;;;0.40;0.40;;;;;;;12.38;45.43;98173.63;10336586;28;20067;-58
2023/01/07 13:35:03;;;;;;;0.20;0.20;;;;;;;12.41;44.62;98173.59;10335587;28;20148;-63
2023/01/07 13:40:02;;;;;;;0.47;0.47;;;;;;;12.42;44.64;98177.97;10299895;28;20113;-58
2023/01/07 13:45:06;;;;;;;;;;;;;;;12.40;44.00;98179.69;10317009;28;20025;-57
2023/01/07 13:50:17;;;;;;;0.20;0.20;;;;;;;12.16;43.84;98133.69;10335550;28;19953;-58
2023/01/07 16:35:33;;;;;;;0.40;0.40;;;;;;;5.38;64.93;98228.34;10488651;27;20948;-56
2023/01/07 16:40:35;;;;;;;0.20;0.20;;;;;;;5.24;64.08;98198.78;10479923;28;20051;-58
2023/01/07 16:45:35;;;;;;;1.00;1.00;;;;;;;5.29;63.79;98203.22;10473282;28;20071;-56
2023/01/07 16:50:40;;;;;;;2.28;2.22;;;;;;;5.46;64.03;98233.69;10481727;28;20541;-57
2023/01/07 16:55:50;;;;;;;0.43;0.43;;;;;;;5.38;64.05;98228.34;10483942;28;20059;-57
2023/01/07 17:00:50;;;;;;;;;;;;;;;5.36;64.46;98235.16;10488052;28;20048;-60
2023/01/07 17:06:05;;;;;;;12.15;11.13;;;;;;;5.19;64.26;98246.69;10488386;28;19954;-59
2023/01/07 17:11:13;;;;;;;0.65;0.65;;;;;;;5.00;64.54;98235.88;10467964;28;20343;-57
2023/01/07 17:16:23;;;;;;;0.30;0.30;;;;;;;4.99;64.58;98249.53;10479722;28;20059;-57
2023/01/07 17:21:42;;;;;;;0.20;0.20;;;;;;;4.90;64.94;98260.44;10480132;28;20115;-56
2023/01/07 17:26:41;;;;;;;6.30;5.90;;;;;;;4.82;65.40;98264.44;10444587;28;20095;-56
2023/01/07 17:31:41;;;;;;;0.35;0.35;;;;;;;4.75;65.87;98264.22;10477193;28;20058;-57
2023/01/07 17:36:40;;;;;;;0.20;0.20;;;;;;;4.62;65.96;98253.59;10460288;28;20609;-57
2023/01/07 17:46:56;;;;;;;3.20;3.00;;;;;;;4.36;66.71;98249.31;10421160;28;20471;-57
2023/01/07 17:51:55;;;;;;;2.88;2.75;;;;;;;4.28;67.48;98249.94;10458281;28;20405;-57
2023/01/07 17:56:54;;;;;;;0.20;0.20;;;;;;;4.16;67.60;98261.53;10458515;28;20036;-57
2023/01/07 18:01:55;;;;;;;6.60;6.10;;;;;;;4.05;68.13;98258.63;10458621;28;20030;-59
2023/01/07 18:06:54;;;;;;;0.20;0.20;;;;;;;4.06;68.49;98257.81;10427512;28;20068;-58
2023/01/07 18:17:10;;;;;;;8.02;7.38;;;;;;;3.84;68.94;98264.78;10457403;28;20450;-57
2023/01/07 18:22:09;;;;;;;10.25;9.35;;;;;;;3.72;69.42;98251.53;10458177;28;20839;-57
2023/01/07 18:27:17;;;;;;;3.33;2.95;;;;;;;3.69;69.57;98248.88;10460150;28;20937;-57
2023/01/07 18:32:16;;;;;;;0.20;0.20;;;;;;;3.62;69.84;98257.19;10457471;28;20513;-57
2023/01/07 18:37:16;;;;;;;5.95;5.63;;;;;;;3.59;70.15;98282.75;10455000;28;20482;-57
2023/01/07 18:42:15;;;;;;;6.40;5.88;;;;;;;3.51;70.26;98273.91;10454411;28;20074;-57
2023/01/07 18:47:14;;;;;;;0.40;0.40;;;;;;;3.38;70.64;98258.06;10455682;28;20044;-56
2023/01/07 18:52:13;;;;;;;;;;;;;;;3.35;70.79;98273.34;10457251;28;20536;-55
2023/01/07 18:57:13;;;;;;;3.47;3.33;;;;;;;3.21;70.89;98252.34;10454739;28;21401;-56
2023/01/07 19:02:20;;;;;;;9.25;8.68;;;;;;;3.22;71.39;98261.78;10456576;28;20059;-56
2023/01/07 19:07:20;;;;;;;0.20;0.20;;;;;;;3.13;71.68;98260.59;10457740;28;20075;-56
2023/01/07 19:12:18;;;;;;;4.72;2.85;;;;;;;3.00;72.14;98254.13;10442774;28;20106;-56
2023/01/07 19:17:17;;;;;;;4.22;3.85;;;;;;;3.05;71.74;98267.09;10456749;28;20059;-56
2023/01/07 19:22:17;;;;;;;5.30;4.90;;;;;;;2.95;72.69;98264.19;10447536;28;20040;-58
2023/01/07 19:27:16;;;;;;;2.35;2.25;;;;;;;2.93;72.72;98263.28;10457679;28;20067;-57
2023/01/07 19:32:15;;;;;;;4.88;4.45;;;;;;;2.74;73.09;98250.59;10438010;28;20053;-57
2023/01/07 19:37:13;;;;;;;;;;;;;;;2.79;73.71;98267.91;10456231;28;20127;-58
2023/01/07 19:42:12;;;;;;;1.92;1.92;;;;;;;2.70;73.55;98264.09;10451381;28;19916;-57
2023/01/07 19:47:11;;;;;;;1.65;1.65;;;;;;;2.62;73.65;98252.69;10456742;28;20036;-57
2023/01/07 19:52:12;;;;;;;;;;;;;;;2.62;74.11;98261.25;10451526;28;20044;-57
2023/01/07 19:57:11;;;;;;;23.67;11.70;;;;;;;2.31;74.33;98229.31;10449435;28;19951;-57
2023/01/07 20:02:12;;;;;;;1.67;1.58;;;;;;;2.48;74.19;98273.50;10434444;28;20027;-57
2023/01/07 20:07:11;;;;;;;3.13;3.03;;;;;;;2.40;74.44;98258.69;10443236;28;20082;-57
2023/01/07 20:12:10;;;;;;;2.50;2.40;;;;;;;2.28;75.05;98264.19;10450857;28;20089;-57
2023/01/07 20:17:09;;;;;;;37.05;18.88;;;;;;;2.27;75.10;98268.41;10436035;28;20044;-57
2023/01/07 20:22:09;;;;;;;0.30;0.30;;;;;;;2.26;75.38;98276.06;10447899;28;20052;-56
2023/01/07 20:27:08;;;;;;;0.70;0.70;;;;;;;2.20;75.03;98271.56;10438499;28;20078;-56
2023/01/07 20:32:08;;;;;;;0.20;0.20;;;;;;;2.04;75.77;98259.81;10438452;28;20115;-57
2023/01/07 20:37:06;;;;;;;2.72;2.55;;;;;;;2.04;75.53;98270.03;10437115;28;20074;-57
2023/01/07 20:42:05;;;;;;;14.68;10.68;;;;;;;1.97;75.70;98273.16;10439244;28;20028;-56
2023/01/07 20:47:04;;;;;;;;;;;;;;;1.92;75.66;98277.22;10447421;28;20101;-56
2023/01/07 20:52:03;;;;;;;0.90;0.90;;;;;;;1.85;76.06;98272.66;10434592;28;20006;-56
2023/01/07 20:57:02;;;;;;;2.28;2.20;;;;;;;1.77;76.05;98279.16;10437094;28;20036;-57
2023/01/07 21:02:01;;;;;;;;;;;;;;;1.74;76.00;98275.66;10445169;28;20120;-56
2023/01/07 21:07:00;;;;;;;7.13;6.40;;;;;;;1.65;76.81;98272.72;10453348;28;20028;-57
2023/01/07 21:11:59;;;;;;;22.02;8.50;;;;;;;1.63;76.49;98274.34;10444721;28;20043;-57
2023/01/07 21:16:58;;;;;;;;;;;;;;;1.59;76.79;98272.44;10454799;28;20576;-57
2023/01/07 21:21:59;;;;;;;4.63;1.85;;;;;;;1.35;77.15;98263.75;10443462;28;20390;-56
2023/01/07 21:26:58;;;;;;;1.55;1.55;;;;;;;1.38;76.99;98263.88;10449488;28;20062;-58
2023/01/07 21:31:59;;;;;;;;;;;;;;;1.40;77.21;98268.22;10439532;28;20744;-56
2023/01/07 21:36:58;;;;;;;1.63;1.55;;;;;;;1.28;77.89;98271.13;10444051;28;20593;-57
2023/01/07 21:41:57;;;;;;;9.30;8.57;;;;;;;1.24;77.76;98269.25;10443015;28;20554;-56
2023/01/07 21:46:56;;;;;;;;;;;;;;;1.21;77.80;98258.91;10441125;28;20576;-56
2023/01/07 21:51:54;;;;;;;1.67;1.67;;;;;;;0.74;78.01;98169.94;10452992;28;19915;-56
2023/01/07 21:56:53;;;;;;;;;;;;;;;1.23;77.91;98259.84;10460938;28;20070;-57
2023/01/07 22:01:52;;;;;;;2.38;2.28;;;;;;;1.17;78.13;98251.88;10457089;28;19912;-57
2023/01/07 22:06:52;;;;;;;3.97;3.80;;;;;;;1.14;78.46;98259.44;10457676;28;20135;-57
2023/01/07 22:11:51;;;;;;;4.95;4.75;;;;;;;1.03;78.44;98240.19;10455059;28;20047;-57
2023/01/07 22:16:50;;;;;;;1.95;1.85;;;;;;;1.02;79.06;98248.69;10456465;28;20031;-57
2023/01/07 22:21:49;;;;;;;14.88;10.20;;;;;;;1.00;78.96;98250.28;10447583;28;20036;-58
2023/01/07 22:26:48;;;;;;;1.48;1.40;;;;;;;0.95;79.32;98247.53;10444707;28;20391;-56
2023/01/07 22:31:49;;;;;;;;;;;;;;;0.89;79.53;98237.00;10453129;28;20028;-56
2023/01/07 22:37:15;;;;;;;16.52;11.90;;;;;;;0.86;79.47;98232.66;10445695;28;19951;-56
2023/01/07 22:42:21;;;;;;;27.40;19.77;;;;;;;0.76;79.92;98225.38;10439816;28;20111;-57
2023/01/07 22:47:24;;;;;;;7.20;6.65;;;;;;;0.69;79.82;98211.47;10447479;28;20063;-56
2023/01/07 22:52:23;;;;;;;18.08;15.02;;;;;;;0.55;80.40;98193.78;10442497;28;20055;-56
2023/01/07 22:57:22;;;;;;;;;;;;;;;0.56;80.51;98206.59;10455692;28;20106;-55
2023/01/07 23:02:21;;;;;;;7.63;7.17;;;;;;;0.47;81.01;98206.19;10454369;28;19919;-55
2023/01/07 23:07:19;;;;;;;5.85;5.45;;;;;;;0.41;81.24;98198.25;10451528;28;20090;-56
2023/01/07 23:12:18;;;;;;;;;;;;;;;0.35;81.36;98196.28;10451908;28;20032;-56
2023/01/07 23:17:17;;;;;;;6.60;4.68;;;;;;;-0.06;81.42;98133.13;10450248;28;19915;-56
2023/01/07 23:22:16;;;;;;;;;;;;;;;-0.10;81.55;98124.44;10452731;28;20035;-55
2023/01/07 23:27:15;;;;;;;10.23;9.48;;;;;;;0.15;81.96;98161.31;10454123;28;19927;-56
2023/01/07 23:32:14;;;;;;;;;;;;;;;0.26;81.91;98180.53;10456404;28;20138;-55
2023/01/07 23:37:12;;;;;;;18.58;16.65;;;;;;;0.14;82.44;98160.44;10453192;28;19955;-56
2023/01/07 23:42:11;;;;;;;;;;;;;;;0.27;82.12;98178.06;10455157;28;20103;-55
2023/01/07 23:47:10;;;;;;;5.28;4.88;;;;;;;0.18;82.29;98169.97;10454639;28;19974;-56
2023/01/07 23:52:09;;;;;;;;;;;;;;;0.22;82.24;98168.47;10456706;28;20034;-56
2023/01/07 23:57:08;;;;;;;5.60;5.10;;;;;;;0.04;82.25;98148.06;10453795;28;20467;-56
